Seadream 1 — C6PW8 — position and weather

sailwx.info

Track history (hours):
 
Tides and Currents Weather Stations Pressure Air Temp Water Temp Dewpoint Dewpoint Depression Visibility Wind Speed Wind Dir Waves Ship Positions

Seadream 1

Last reported at 2017-Aug-20 11:30 UTC. Time now 2017-Aug-20 11:40 UTC.
Position N 40°34' E 014°14'.

Length 105 m; draft 4.3 m.

Type: Ship. MMSI: 308908000.

Date/timePositionNaut miles runAvg speedWind from/ knotsBaromVisibWave heightAir tempDewpointWater temp
2017-Aug-20 11:30N 40°34' E 014°14'0 0.0
2017-Aug-20 10:54N 40°34' E 014°14'1 0.2
2017-Aug-20 06:01N 40°34' E 014°12'612.6
2017-Aug-20 05:30N 40°35' E 014°04'611.2
2017-Aug-20 05:01N 40°36' E 013°57'611.2
2017-Aug-20 04:31N 40°37' E 013°50'510.9
2017-Aug-20 04:01N 40°41' E 013°44'611.1
2017-Aug-20 03:31N 40°45' E 013°40'510.9
2017-Aug-20 03:01N 40°49' E 013°34'611.0
2017-Aug-20 02:31N 40°53' E 013°29'129 2.8
2017-Aug-18 03:52N 42°11' E 011°11'48 9.7
2017-Aug-17 22:58N 41°46' E 010°16'17 9.6
2017-Aug-17 21:12N 41°37' E 009°57'2 9.7
2017-Aug-17 21:00N 41°36' E 009°55'63 2.6
2017-Aug-16 20:45N 42°39' E 009°58'2 9.9
2017-Aug-16 20:30N 42°42' E 009°59'5 9.7
2017-Aug-16 20:00N 42°46' E 010°02'6 9.8
2017-Aug-16 19:26N 42°50' E 010°07'4 9.5
2017-Aug-16 18:58N 42°51' E 010°13'4 9.3
2017-Aug-16 18:30N 42°51' E 010°19'2 4.4
2017-Aug-16 18:00N 42°49' E 010°20'0 0.1
2017-Aug-16 16:51N 42°49' E 010°20'0 0.0
2017-Aug-16 16:24N 42°49' E 010°20'0 0.0
2017-Aug-16 15:55N 42°49' E 010°20'0 0.0
2017-Aug-16 15:25N 42°49' E 010°20'0 0.0
2017-Aug-16 13:03N 42°49' E 010°20'0 0.0
2017-Aug-16 12:33N 42°49' E 010°20'0 0.0
2017-Aug-16 11:04N 42°49' E 010°20'0 0.0
2017-Aug-16 10:58N 42°49' E 010°20'0 0.0
2017-Aug-16 09:29N 42°49' E 010°20'0 0.0
2017-Aug-16 08:59N 42°49' E 010°20'0 0.0
2017-Aug-16 08:27N 42°49' E 010°20'0 0.0
2017-Aug-16 08:00N 42°49' E 010°20'0 0.0
2017-Aug-16 07:30N 42°49' E 010°20'0 0.0
2017-Aug-16 06:55N 42°49' E 010°20'0 0.0
2017-Aug-16 05:56N 42°49' E 010°20'1 2.4
2017-Aug-16 05:30N 42°49' E 010°21'3 6.8
2017-Aug-16 05:00N 42°53' E 010°20'0 0.5
2017-Aug-16 04:30N 42°53' E 010°20'0 0.5
2017-Aug-16 03:53N 42°53' E 010°20'0 0.7
2017-Aug-16 03:30N 42°54' E 010°20'0 0.7
2017-Aug-16 03:00N 42°54' E 010°20'0 0.7
2017-Aug-16 02:30N 42°54' E 010°20'0 0.7
2017-Aug-16 01:59N 42°55' E 010°20'0 0.6
2017-Aug-16 01:26N 42°55' E 010°19'1 1.4
2017-Aug-16 00:57N 42°56' E 010°19'9 9.2
2017-Aug-15 23:57N 43°05' E 010°17'5 9.2
2017-Aug-15 23:25N 43°10' E 010°16'7 8.7
2017-Aug-15 22:38N 43°16' E 010°15'1 8.7
2017-Aug-15 22:30N 43°17' E 010°15'3 6.7
2017-Aug-15 22:00N 43°21' E 010°14'3 5.4
2017-Aug-15 21:30N 43°23' E 010°13'3 5.3
2017-Aug-15 21:00N 43°26' E 010°13'3 5.3
2017-Aug-15 20:30N 43°29' E 010°12'4 8.0
2017-Aug-15 19:59N 43°32' E 010°16'2 4.3
2017-Aug-15 19:30N 43°33' E 010°18'0 0.0
2017-Aug-15 19:00N 43°33' E 010°18'0 0.0
2017-Aug-15 18:30N 43°33' E 010°18'0 0.0
2017-Aug-15 18:00N 43°33' E 010°18'0 0.0
2017-Aug-15 17:30N 43°33' E 010°18'0 0.0
2017-Aug-15 17:00N 43°33' E 010°18'0 0.0
2017-Aug-15 16:30N 43°33' E 010°18'0 0.0
2017-Aug-15 16:00N 43°33' E 010°18'0 0.0
2017-Aug-15 15:30N 43°33' E 010°18'0 0.0
2017-Aug-15 15:00N 43°33' E 010°18'0 0.0
2017-Aug-15 14:30N 43°33' E 010°18'0 0.0
2017-Aug-15 14:00N 43°33' E 010°18'0 0.0
2017-Aug-15 13:30N 43°33' E 010°18'0 0.0
2017-Aug-15 13:00N 43°33' E 010°18'0 0.0
2017-Aug-15 12:30N 43°33' E 010°18'0 0.0
2017-Aug-15 12:00N 43°33' E 010°18'0 0.0
2017-Aug-15 11:30N 43°33' E 010°18'0 0.0
2017-Aug-15 11:00N 43°33' E 010°18'0 0.0
2017-Aug-15 10:30N 43°33' E 010°18'0 0.0
2017-Aug-15 10:00N 43°33' E 010°18'0 0.0
2017-Aug-15 09:30N 43°33' E 010°18'0 0.0
2017-Aug-15 09:00N 43°33' E 010°18'0 0.0
2017-Aug-15 08:30N 43°33' E 010°18'0 0.0
2017-Aug-15 08:00N 43°33' E 010°18'0 0.0
2017-Aug-15 07:30N 43°33' E 010°18'0 0.0
2017-Aug-15 07:00N 43°33' E 010°18'0 0.0
2017-Aug-15 06:30N 43°33' E 010°18'0 0.0
2017-Aug-15 06:00N 43°33' E 010°18'0 0.0
2017-Aug-15 05:30N 43°33' E 010°18'0 0.0
2017-Aug-15 05:00N 43°33' E 010°18'2 3.7
2017-Aug-15 04:30N 43°32' E 010°16'4 7.5
2017-Aug-15 04:00N 43°30' E 010°12'4 7.0
2017-Aug-15 03:30N 43°30' E 010°07'3 6.4
2017-Aug-15 03:00N 43°30' E 010°03'3 6.4
2017-Aug-15 02:30N 43°31' E 009°59'3 6.4
2017-Aug-15 02:00N 43°31' E 009°54'3 5.6
2017-Aug-15 01:30N 43°33' E 009°51'3 5.6
2017-Aug-15 01:01N 43°35' E 009°49'3 5.6
2017-Aug-15 00:31N 43°38' E 009°48'3 5.8
2017-Aug-15 00:01N 43°41' E 009°48'3 5.8
2017-Aug-14 23:31N 43°44' E 009°48'3 5.7
2017-Aug-14 23:00N 43°47' E 009°49'3 5.6
2017-Aug-14 22:31N 43°49' E 009°50'3 5.6
2017-Aug-14 22:01N 43°52' E 009°50'3 5.9
2017-Aug-14 21:31N 43°55' E 009°51'3 6.3
2017-Aug-14 21:01N 43°58' E 009°52'3 6.1
2017-Aug-14 20:30N 44°01' E 009°52'2 4.4
2017-Aug-14 20:00N 44°03' E 009°51'0 0.1
2017-Aug-14 19:30N 44°03' E 009°51'0 0.0
2017-Aug-14 18:55N 44°03' E 009°51'0 0.0
2017-Aug-14 18:28N 44°03' E 009°51'0 0.0
2017-Aug-14 17:59N 44°03' E 009°51'0 0.0
2017-Aug-14 17:29N 44°03' E 009°51'0 0.0
2017-Aug-14 16:59N 44°03' E 009°51'0 0.0
2017-Aug-14 16:29N 44°03' E 009°51'0 0.0
2017-Aug-14 16:00N 44°03' E 009°51'0 0.0
2017-Aug-14 15:30N 44°03' E 009°51'0 0.0
2017-Aug-14 15:00N 44°03' E 009°51'0 0.1
2017-Aug-14 14:25N 44°03' E 009°51'0 0.1
2017-Aug-14 13:58N 44°03' E 009°51'0 0.0
2017-Aug-14 13:29N 44°03' E 009°51'0 0.0
2017-Aug-14 12:59N 44°03' E 009°51'0 0.0
2017-Aug-14 12:30N 44°03' E 009°51'0 0.0
2017-Aug-14 11:59N 44°03' E 009°51'0 0.0
2017-Aug-14 11:30N 44°03' E 009°51'0 0.0
2017-Aug-14 11:00N 44°03' E 009°51'0 0.0
2017-Aug-14 10:30N 44°03' E 009°51'0 0.0
2017-Aug-14 10:00N 44°03' E 009°51'0 0.0
2017-Aug-14 09:31N 44°03' E 009°51'0 0.0
2017-Aug-14 09:01N 44°03' E 009°51'0 0.0
2017-Aug-14 08:31N 44°03' E 009°51'0 0.1
2017-Aug-14 08:01N 44°03' E 009°51'0 0.0
2017-Aug-14 07:31N 44°03' E 009°51'0 0.0
2017-Aug-14 07:00N 44°03' E 009°51'0 0.1
2017-Aug-14 06:30N 44°03' E 009°51'0 0.0
2017-Aug-14 06:00N 44°03' E 009°51'0 0.0
2017-Aug-14 05:30N 44°03' E 009°51'1 1.7
2017-Aug-14 05:00N 44°03' E 009°52'4 7.1
2017-Aug-14 04:30N 44°00' E 009°55'4 8.6
2017-Aug-14 04:00N 44°00' E 009°49'3 6.7
2017-Aug-14 03:31N 44°00' E 009°45'2 4.6
2017-Aug-14 03:00N 44°01' E 009°41'2 4.3
2017-Aug-14 02:30N 44°02' E 009°39'2 4.2
2017-Aug-14 02:00N 44°02' E 009°36'2 4.3
2017-Aug-14 01:30N 44°04' E 009°34'2 4.4
2017-Aug-14 01:00N 44°05' E 009°31'2 4.4
2017-Aug-14 00:30N 44°07' E 009°29'2 4.4
2017-Aug-14 00:00N 44°08' E 009°27'2 4.3
2017-Aug-13 23:30N 44°09' E 009°24'2 4.2
2017-Aug-13 23:00N 44°11' E 009°22'2 4.6
2017-Aug-13 22:30N 44°12' E 009°19'2 4.4
2017-Aug-13 22:00N 44°14' E 009°18'2 4.6
2017-Aug-13 21:30N 44°16' E 009°16'3 5.1
2017-Aug-13 21:00N 44°18' E 009°14'0 0.6
2017-Aug-13 20:19N 44°18' E 009°14'0 0.0
2017-Aug-13 19:55N 44°18' E 009°14'0 0.0
2017-Aug-13 19:28N 44°18' E 009°14'0 0.0
2017-Aug-13 18:59N 44°18' E 009°14'0 0.0
2017-Aug-13 18:26N 44°18' E 009°14'0 0.0
2017-Aug-13 17:59N 44°18' E 009°14'0 0.0
2017-Aug-13 17:30N 44°18' E 009°14'0 0.0
2017-Aug-13 17:00N 44°18' E 009°14'0 0.0
2017-Aug-13 16:30N 44°18' E 009°14'0 0.0
2017-Aug-13 15:58N 44°18' E 009°14'0 0.0
2017-Aug-13 15:25N 44°18' E 009°14'0 0.0
2017-Aug-13 14:58N 44°18' E 009°14'0 0.0
2017-Aug-13 14:29N 44°18' E 009°14'0 0.0
2017-Aug-13 13:59N 44°18' E 009°14'0 0.0
2017-Aug-13 13:29N 44°18' E 009°14'0 0.0
2017-Aug-13 13:00N 44°18' E 009°14'0 0.0
2017-Aug-13 12:30N 44°18' E 009°14'0 0.0
2017-Aug-13 12:00N 44°18' E 009°14'0 0.0
2017-Aug-13 11:22N 44°18' E 009°14'0 0.0
2017-Aug-13 10:58N 44°18' E 009°14'0 0.0
2017-Aug-13 10:25N 44°18' E 009°14'0 0.0
2017-Aug-13 09:59N 44°18' E 009°14'0 0.0
2017-Aug-13 09:29N 44°18' E 009°14'0 0.0
2017-Aug-13 08:53N 44°18' E 009°14'0 0.0
2017-Aug-13 08:29N 44°18' E 009°14'0 0.1
2017-Aug-13 07:59N 44°18' E 009°14'0 0.0
2017-Aug-13 07:09N 44°18' E 009°14'0 0.0
2017-Aug-13 06:47N 44°18' E 009°14'0 0.0
2017-Aug-13 06:29N 44°18' E 009°14'3 2.8
2017-Aug-13 05:36N 44°17' E 009°16'1 6.3
2017-Aug-13 05:30N 44°16' E 009°17'4 7.8
2017-Aug-13 05:01N 44°14' E 009°13'5 9.1
2017-Aug-13 04:30N 44°12' E 009°07'5 9.4
2017-Aug-13 04:00N 44°10' E 009°01'5 9.2
2017-Aug-13 03:30N 44°08' E 008°56'5 9.2
2017-Aug-13 03:00N 44°06' E 008°50'5 9.2
2017-Aug-13 02:30N 44°04' E 008°44'5 9.1
2017-Aug-13 02:00N 44°02' E 008°38'5 9.1
2017-Aug-13 01:30N 43°60' E 008°33'5 9.1
2017-Aug-13 01:00N 43°57' E 008°27'5 9.2
2017-Aug-13 00:30N 43°55' E 008°22'5 9.1
2017-Aug-13 00:00N 43°53' E 008°16'4 8.9
2017-Aug-12 23:30N 43°51' E 008°10'5 9.1
2017-Aug-12 23:00N 43°49' E 008°05'5 9.3
2017-Aug-12 22:30N 43°47' E 007°59'4 9.1
2017-Aug-12 22:00N 43°46' E 007°53'5 9.8
2017-Aug-12 21:30N 43°45' E 007°46'14 7.3
2017-Aug-12 19:34N 43°44' E 007°27'0 0.5
2017-Aug-12 19:29N 43°44' E 007°27'0 0.0
2017-Aug-12 18:14N 43°44' E 007°27'0 0.0
2017-Aug-12 17:57N 43°44' E 007°27'0 0.0
2017-Aug-12 17:29N 43°44' E 007°27'1 1.4
2017-Aug-12 16:56N 43°44' E 007°26'9 0.4
2017-Aug-11 16:42N 43°37' E 007°18'4 0.3
2017-Aug-11 04:08N 43°36' E 007°23'2 5.3
2017-Aug-11 03:51N 43°35' E 007°22'3 3.9
2017-Aug-11 03:09N 43°35' E 007°18'1 5.1
2017-Aug-11 02:57N 43°36' E 007°18'3 3.8
2017-Aug-11 02:02N 43°39' E 007°19'0 4.7
2017-Aug-11 01:58N 43°39' E 007°19'  
Track history (hours):
 
Tides and Currents Weather Stations Pressure Air Temp Water Temp Dewpoint Dewpoint Depression Visibility Wind Speed Wind Dir Waves Ship Positions

Seadream 1

Last reported at 2017-Aug-20 11:30 UTC. Time now 2017-Aug-20 11:40 UTC.
Position N 40°34' E 014°14'.

Length 105 m; draft 4.3 m.

Type: Ship. MMSI: 308908000.

Date/timePositionNaut miles runAvg speedWind from/ knotsBaromVisibWave heightAir tempDewpointWater temp
2017-Aug-20 11:30N 40°34' E 014°14'0 0.0
2017-Aug-20 10:54N 40°34' E 014°14'1 0.2
2017-Aug-20 06:01N 40°34' E 014°12'612.6
2017-Aug-20 05:30N 40°35' E 014°04'611.2
2017-Aug-20 05:01N 40°36' E 013°57'611.2
2017-Aug-20 04:31N 40°37' E 013°50'510.9
2017-Aug-20 04:01N 40°41' E 013°44'611.1
2017-Aug-20 03:31N 40°45' E 013°40'510.9
2017-Aug-20 03:01N 40°49' E 013°34'611.0
2017-Aug-20 02:31N 40°53' E 013°29'129 2.8
2017-Aug-18 03:52N 42°11' E 011°11'48 9.7
2017-Aug-17 22:58N 41°46' E 010°16'17 9.6
2017-Aug-17 21:12N 41°37' E 009°57'2 9.7
2017-Aug-17 21:00N 41°36' E 009°55'63 2.6
2017-Aug-16 20:45N 42°39' E 009°58'2 9.9
2017-Aug-16 20:30N 42°42' E 009°59'5 9.7
2017-Aug-16 20:00N 42°46' E 010°02'6 9.8
2017-Aug-16 19:26N 42°50' E 010°07'4 9.5
2017-Aug-16 18:58N 42°51' E 010°13'4 9.3
2017-Aug-16 18:30N 42°51' E 010°19'2 4.4
2017-Aug-16 18:00N 42°49' E 010°20'0 0.1
2017-Aug-16 16:51N 42°49' E 010°20'0 0.0
2017-Aug-16 16:24N 42°49' E 010°20'0 0.0
2017-Aug-16 15:55N 42°49' E 010°20'0 0.0
2017-Aug-16 15:25N 42°49' E 010°20'0 0.0
2017-Aug-16 13:03N 42°49' E 010°20'0 0.0
2017-Aug-16 12:33N 42°49' E 010°20'0 0.0
2017-Aug-16 11:04N 42°49' E 010°20'0 0.0
2017-Aug-16 10:58N 42°49' E 010°20'0 0.0
2017-Aug-16 09:29N 42°49' E 010°20'0 0.0
2017-Aug-16 08:59N 42°49' E 010°20'0 0.0
2017-Aug-16 08:27N 42°49' E 010°20'0 0.0
2017-Aug-16 08:00N 42°49' E 010°20'0 0.0
2017-Aug-16 07:30N 42°49' E 010°20'0 0.0
2017-Aug-16 06:55N 42°49' E 010°20'0 0.0
2017-Aug-16 05:56N 42°49' E 010°20'1 2.4
2017-Aug-16 05:30N 42°49' E 010°21'3 6.8
2017-Aug-16 05:00N 42°53' E 010°20'0 0.5
2017-Aug-16 04:30N 42°53' E 010°20'0 0.5
2017-Aug-16 03:53N 42°53' E 010°20'0 0.7
2017-Aug-16 03:30N 42°54' E 010°20'0 0.7
2017-Aug-16 03:00N 42°54' E 010°20'0 0.7
2017-Aug-16 02:30N 42°54' E 010°20'0 0.7
2017-Aug-16 01:59N 42°55' E 010°20'0 0.6
2017-Aug-16 01:26N 42°55' E 010°19'1 1.4
2017-Aug-16 00:57N 42°56' E 010°19'9 9.2
2017-Aug-15 23:57N 43°05' E 010°17'5 9.2
2017-Aug-15 23:25N 43°10' E 010°16'7 8.7
2017-Aug-15 22:38N 43°16' E 010°15'1 8.7
2017-Aug-15 22:30N 43°17' E 010°15'3 6.7
2017-Aug-15 22:00N 43°21' E 010°14'3 5.4
2017-Aug-15 21:30N 43°23' E 010°13'3 5.3
2017-Aug-15 21:00N 43°26' E 010°13'3 5.3
2017-Aug-15 20:30N 43°29' E 010°12'4 8.0
2017-Aug-15 19:59N 43°32' E 010°16'2 4.3
2017-Aug-15 19:30N 43°33' E 010°18'0 0.0
2017-Aug-15 19:00N 43°33' E 010°18'0 0.0
2017-Aug-15 18:30N 43°33' E 010°18'0 0.0
2017-Aug-15 18:00N 43°33' E 010°18'0 0.0
2017-Aug-15 17:30N 43°33' E 010°18'0 0.0
2017-Aug-15 17:00N 43°33' E 010°18'0 0.0
2017-Aug-15 16:30N 43°33' E 010°18'0 0.0
2017-Aug-15 16:00N 43°33' E 010°18'0 0.0
2017-Aug-15 15:30N 43°33' E 010°18'0 0.0
2017-Aug-15 15:00N 43°33' E 010°18'0 0.0
2017-Aug-15 14:30N 43°33' E 010°18'0 0.0
2017-Aug-15 14:00N 43°33' E 010°18'0 0.0
2017-Aug-15 13:30N 43°33' E 010°18'0 0.0
2017-Aug-15 13:00N 43°33' E 010°18'0 0.0
2017-Aug-15 12:30N 43°33' E 010°18'0 0.0
2017-Aug-15 12:00N 43°33' E 010°18'0 0.0
2017-Aug-15 11:30N 43°33' E 010°18'0 0.0
2017-Aug-15 11:00N 43°33' E 010°18'0 0.0
2017-Aug-15 10:30N 43°33' E 010°18'0 0.0
2017-Aug-15 10:00N 43°33' E 010°18'0 0.0
2017-Aug-15 09:30N 43°33' E 010°18'0 0.0
2017-Aug-15 09:00N 43°33' E 010°18'0 0.0
2017-Aug-15 08:30N 43°33' E 010°18'0 0.0
2017-Aug-15 08:00N 43°33' E 010°18'0 0.0
2017-Aug-15 07:30N 43°33' E 010°18'0 0.0
2017-Aug-15 07:00N 43°33' E 010°18'0 0.0
2017-Aug-15 06:30N 43°33' E 010°18'0 0.0
2017-Aug-15 06:00N 43°33' E 010°18'0 0.0
2017-Aug-15 05:30N 43°33' E 010°18'0 0.0
2017-Aug-15 05:00N 43°33' E 010°18'2 3.7
2017-Aug-15 04:30N 43°32' E 010°16'4 7.5
2017-Aug-15 04:00N 43°30' E 010°12'4 7.0
2017-Aug-15 03:30N 43°30' E 010°07'3 6.4
2017-Aug-15 03:00N 43°30' E 010°03'3 6.4
2017-Aug-15 02:30N 43°31' E 009°59'3 6.4
2017-Aug-15 02:00N 43°31' E 009°54'3 5.6
2017-Aug-15 01:30N 43°33' E 009°51'3 5.6
2017-Aug-15 01:01N 43°35' E 009°49'3 5.6
2017-Aug-15 00:31N 43°38' E 009°48'3 5.8
2017-Aug-15 00:01N 43°41' E 009°48'3 5.8
2017-Aug-14 23:31N 43°44' E 009°48'3 5.7
2017-Aug-14 23:00N 43°47' E 009°49'3 5.6
2017-Aug-14 22:31N 43°49' E 009°50'3 5.6
2017-Aug-14 22:01N 43°52' E 009°50'3 5.9
2017-Aug-14 21:31N 43°55' E 009°51'3 6.3
2017-Aug-14 21:01N 43°58' E 009°52'3 6.1
2017-Aug-14 20:30N 44°01' E 009°52'2 4.4
2017-Aug-14 20:00N 44°03' E 009°51'0 0.1
2017-Aug-14 19:30N 44°03' E 009°51'0 0.0
2017-Aug-14 18:55N 44°03' E 009°51'0 0.0
2017-Aug-14 18:28N 44°03' E 009°51'0 0.0
2017-Aug-14 17:59N 44°03' E 009°51'0 0.0
2017-Aug-14 17:29N 44°03' E 009°51'0 0.0
2017-Aug-14 16:59N 44°03' E 009°51'0 0.0
2017-Aug-14 16:29N 44°03' E 009°51'0 0.0
2017-Aug-14 16:00N 44°03' E 009°51'0 0.0
2017-Aug-14 15:30N 44°03' E 009°51'0 0.0
2017-Aug-14 15:00N 44°03' E 009°51'0 0.1
2017-Aug-14 14:25N 44°03' E 009°51'0 0.1
2017-Aug-14 13:58N 44°03' E 009°51'0 0.0
2017-Aug-14 13:29N 44°03' E 009°51'0 0.0
2017-Aug-14 12:59N 44°03' E 009°51'0 0.0
2017-Aug-14 12:30N 44°03' E 009°51'0 0.0
2017-Aug-14 11:59N 44°03' E 009°51'0 0.0
2017-Aug-14 11:30N 44°03' E 009°51'0 0.0
2017-Aug-14 11:00N 44°03' E 009°51'0 0.0
2017-Aug-14 10:30N 44°03' E 009°51'0 0.0
2017-Aug-14 10:00N 44°03' E 009°51'0 0.0
2017-Aug-14 09:31N 44°03' E 009°51'0 0.0
2017-Aug-14 09:01N 44°03' E 009°51'0 0.0
2017-Aug-14 08:31N 44°03' E 009°51'0 0.1
2017-Aug-14 08:01N 44°03' E 009°51'0 0.0
2017-Aug-14 07:31N 44°03' E 009°51'0 0.0
2017-Aug-14 07:00N 44°03' E 009°51'0 0.1
2017-Aug-14 06:30N 44°03' E 009°51'0 0.0
2017-Aug-14 06:00N 44°03' E 009°51'0 0.0
2017-Aug-14 05:30N 44°03' E 009°51'1 1.7
2017-Aug-14 05:00N 44°03' E 009°52'4 7.1
2017-Aug-14 04:30N 44°00' E 009°55'4 8.6
2017-Aug-14 04:00N 44°00' E 009°49'3 6.7
2017-Aug-14 03:31N 44°00' E 009°45'2 4.6
2017-Aug-14 03:00N 44°01' E 009°41'2 4.3
2017-Aug-14 02:30N 44°02' E 009°39'2 4.2
2017-Aug-14 02:00N 44°02' E 009°36'2 4.3
2017-Aug-14 01:30N 44°04' E 009°34'2 4.4
2017-Aug-14 01:00N 44°05' E 009°31'2 4.4
2017-Aug-14 00:30N 44°07' E 009°29'2 4.4
2017-Aug-14 00:00N 44°08' E 009°27'2 4.3
2017-Aug-13 23:30N 44°09' E 009°24'2 4.2
2017-Aug-13 23:00N 44°11' E 009°22'2 4.6
2017-Aug-13 22:30N 44°12' E 009°19'2 4.4
2017-Aug-13 22:00N 44°14' E 009°18'2 4.6
2017-Aug-13 21:30N 44°16' E 009°16'3 5.1
2017-Aug-13 21:00N 44°18' E 009°14'0 0.6
2017-Aug-13 20:19N 44°18' E 009°14'0 0.0
2017-Aug-13 19:55N 44°18' E 009°14'0 0.0
2017-Aug-13 19:28N 44°18' E 009°14'0 0.0
2017-Aug-13 18:59N 44°18' E 009°14'0 0.0
2017-Aug-13 18:26N 44°18' E 009°14'0 0.0
2017-Aug-13 17:59N 44°18' E 009°14'0 0.0
2017-Aug-13 17:30N 44°18' E 009°14'0 0.0
2017-Aug-13 17:00N 44°18' E 009°14'0 0.0
2017-Aug-13 16:30N 44°18' E 009°14'0 0.0
2017-Aug-13 15:58N 44°18' E 009°14'0 0.0
2017-Aug-13 15:25N 44°18' E 009°14'0 0.0
2017-Aug-13 14:58N 44°18' E 009°14'0 0.0
2017-Aug-13 14:29N 44°18' E 009°14'0 0.0
2017-Aug-13 13:59N 44°18' E 009°14'0 0.0
2017-Aug-13 13:29N 44°18' E 009°14'0 0.0
2017-Aug-13 13:00N 44°18' E 009°14'0 0.0
2017-Aug-13 12:30N 44°18' E 009°14'0 0.0
2017-Aug-13 12:00N 44°18' E 009°14'0 0.0
2017-Aug-13 11:22N 44°18' E 009°14'0 0.0
2017-Aug-13 10:58N 44°18' E 009°14'0 0.0
2017-Aug-13 10:25N 44°18' E 009°14'0 0.0
2017-Aug-13 09:59N 44°18' E 009°14'0 0.0
2017-Aug-13 09:29N 44°18' E 009°14'0 0.0
2017-Aug-13 08:53N 44°18' E 009°14'0 0.0
2017-Aug-13 08:29N 44°18' E 009°14'0 0.1
2017-Aug-13 07:59N 44°18' E 009°14'0 0.0
2017-Aug-13 07:09N 44°18' E 009°14'0 0.0
2017-Aug-13 06:47N 44°18' E 009°14'0 0.0
2017-Aug-13 06:29N 44°18' E 009°14'3 2.8
2017-Aug-13 05:36N 44°17' E 009°16'1 6.3
2017-Aug-13 05:30N 44°16' E 009°17'4 7.8
2017-Aug-13 05:01N 44°14' E 009°13'5 9.1
2017-Aug-13 04:30N 44°12' E 009°07'5 9.4
2017-Aug-13 04:00N 44°10' E 009°01'5 9.2
2017-Aug-13 03:30N 44°08' E 008°56'5 9.2
2017-Aug-13 03:00N 44°06' E 008°50'5 9.2
2017-Aug-13 02:30N 44°04' E 008°44'5 9.1
2017-Aug-13 02:00N 44°02' E 008°38'5 9.1
2017-Aug-13 01:30N 43°60' E 008°33'5 9.1
2017-Aug-13 01:00N 43°57' E 008°27'5 9.2
2017-Aug-13 00:30N 43°55' E 008°22'5 9.1
2017-Aug-13 00:00N 43°53' E 008°16'4 8.9
2017-Aug-12 23:30N 43°51' E 008°10'5 9.1
2017-Aug-12 23:00N 43°49' E 008°05'5 9.3
2017-Aug-12 22:30N 43°47' E 007°59'4 9.1
2017-Aug-12 22:00N 43°46' E 007°53'5 9.8
2017-Aug-12 21:30N 43°45' E 007°46'14 7.3
2017-Aug-12 19:34N 43°44' E 007°27'0 0.5
2017-Aug-12 19:29N 43°44' E 007°27'0 0.0
2017-Aug-12 18:14N 43°44' E 007°27'0 0.0
2017-Aug-12 17:57N 43°44' E 007°27'0 0.0
2017-Aug-12 17:29N 43°44' E 007°27'1 1.4
2017-Aug-12 16:56N 43°44' E 007°26'9 0.4
2017-Aug-11 16:42N 43°37' E 007°18'4 0.3
2017-Aug-11 04:08N 43°36' E 007°23'2 5.3
2017-Aug-11 03:51N 43°35' E 007°22'3 3.9
2017-Aug-11 03:09N 43°35' E 007°18'1 5.1
2017-Aug-11 02:57N 43°36' E 007°18'3 3.8
2017-Aug-11 02:02N 43°39' E 007°19'0 4.7
2017-Aug-11 01:58N 43°39' E 007°19'  

Dump ship's entire track history